createdAt,value
2018-02-09T11:29:21.232Z,31.20
2018-02-09T11:31:49.672Z,29.37
2018-02-09T11:34:20.029Z,30.13
2018-02-09T11:36:48.475Z,29.55
2018-02-09T11:39:18.023Z,29.40
2018-02-09T11:41:47.903Z,31.33
2018-02-09T11:44:15.775Z,32.03
2018-02-09T11:46:43.939Z,29.58
2018-02-09T11:49:12.477Z,31.07
2018-02-09T11:51:40.011Z,30.60
2018-02-09T11:54:07.938Z,30.12
2018-02-09T11:56:35.486Z,32.57
2018-02-09T11:59:03.019Z,31.30
2018-02-09T12:01:30.570Z,29.47
2018-02-09T12:03:58.092Z,32.73
2018-02-09T12:06:25.735Z,31.23
2018-02-09T12:08:53.251Z,30.10
2018-02-09T12:11:20.815Z,32.43
2018-02-09T12:13:48.325Z,30.63
2018-02-09T12:16:15.933Z,33.38
2018-02-09T12:18:43.519Z,34.50
2018-02-09T12:21:11.031Z,32.47
2018-02-09T12:23:38.591Z,35.27
2018-02-09T12:26:06.201Z,34.67
2018-02-09T12:28:33.738Z,34.53
2018-02-09T12:31:01.247Z,35.10
2018-02-09T12:33:28.978Z,33.73
2018-02-09T12:35:56.577Z,30.90
2018-02-09T12:38:24.169Z,34.10
2018-02-09T12:40:52.075Z,34.33
2018-02-09T12:43:19.920Z,34.57
2018-02-09T12:45:47.486Z,32.80
2018-02-09T12:48:17.188Z,33.40
2018-02-09T12:50:44.719Z,33.80
2018-02-09T12:53:12.323Z,33.08
2018-02-09T12:55:39.866Z,34.23
2018-02-09T12:58:08.151Z,34.08
2018-02-09T13:00:35.723Z,36.60
2018-02-09T13:03:03.250Z,35.67
2018-02-09T13:05:30.819Z,36.90
2018-02-09T13:07:58.405Z,36.80
2018-02-09T13:10:26.062Z,35.43
2018-02-09T13:13:06.018Z,32.70
2018-02-09T13:15:33.645Z,29.23
2018-02-09T13:18:01.513Z,34.13
2018-02-09T13:20:31.925Z,32.30
2018-02-09T13:23:11.398Z,33.00
2018-02-09T13:25:38.966Z,32.83
2018-02-09T13:28:06.490Z,35.60
2018-02-09T13:30:34.179Z,35.37
2018-02-09T13:36:06.450Z,36.33
2018-02-09T13:38:33.982Z,35.93
2018-02-09T13:41:02.239Z,32.90
2018-02-09T13:43:30.811Z,35.10
2018-02-09T13:45:58.367Z,34.50
2018-02-09T13:48:25.920Z,33.90
2018-02-09T13:50:54.739Z,34.30
2018-02-09T13:53:22.427Z,32.05
2018-02-09T13:55:49.948Z,31.30
2018-02-09T13:58:17.771Z,30.73
2018-02-09T14:00:45.347Z,29.63
2018-02-09T14:03:12.906Z,32.00
2018-02-09T14:05:40.931Z,31.30
2018-02-09T14:08:08.630Z,31.17
2018-02-09T14:10:38.515Z,30.80
2018-02-09T14:13:06.074Z,30.60
2018-02-09T14:15:33.617Z,31.83
2018-02-09T14:18:01.223Z,31.73
2018-02-09T14:20:30.239Z,31.90
2018-02-09T14:22:57.943Z,31.63
2018-02-09T14:25:26.222Z,30.75
2018-02-09T14:27:53.827Z,30.77
2018-02-09T14:30:22.227Z,29.70
2018-02-09T14:32:49.758Z,28.83
2018-02-09T14:35:17.331Z,28.67
2018-02-09T14:37:46.319Z,27.50
2018-02-09T14:40:13.889Z,26.13
2018-02-09T14:42:41.418Z,26.98
2018-02-09T14:45:09.544Z,27.35
2018-02-09T14:47:37.053Z,27.97
2018-02-09T14:50:04.599Z,27.17
2018-02-09T14:52:32.224Z,27.07
2018-02-09T14:55:01.165Z,26.83
2018-02-09T14:57:31.768Z,26.73
2018-02-09T14:59:59.535Z,26.87
2018-02-09T15:02:27.081Z,26.43
2018-02-09T15:04:54.610Z,26.63
2018-02-09T15:07:22.166Z,27.23
2018-02-09T15:09:49.686Z,27.57
2018-02-09T15:12:17.264Z,29.80
2018-02-09T15:14:44.799Z,29.70
2018-02-09T15:17:12.376Z,28.20
2018-02-09T15:19:39.926Z,29.47
2018-02-09T15:22:07.573Z,31.73
2018-02-09T15:24:35.329Z,29.27
2018-02-09T15:27:02.857Z,28.10
2018-02-09T15:29:30.456Z,28.53
2018-02-09T15:31:58.086Z,28.17
2018-02-09T15:34:25.639Z,26.37
2018-02-09T15:36:53.165Z,28.45
2018-02-09T15:39:20.746Z,28.57
2018-02-09T15:41:48.270Z,30.13
2018-02-09T15:44:19.992Z,29.87
2018-02-09T15:46:47.515Z,28.33
2018-02-09T15:49:15.078Z,27.33
2018-02-09T15:51:42.604Z,31.13
2018-02-09T15:54:10.707Z,29.17
2018-02-09T15:56:39.361Z,28.53
2018-02-09T15:59:07.482Z,27.53
2018-02-09T16:01:35.208Z,27.13
2018-02-09T16:04:02.738Z,27.97
2018-02-09T16:06:30.295Z,28.40
2018-02-09T16:08:58.319Z,27.13
2018-02-09T16:11:26.274Z,30.03
2018-02-09T16:13:53.827Z,31.23
2018-02-09T16:16:21.413Z,30.87
2018-02-09T16:18:48.947Z,30.93
2018-02-09T16:21:16.548Z,31.52
2018-02-09T16:23:44.950Z,31.43
2018-02-09T16:26:14.256Z,31.33
2018-02-09T16:28:42.813Z,31.00
2018-02-09T16:31:14.674Z,31.35
2018-02-09T16:33:48.391Z,28.53
2018-02-09T16:36:19.251Z,28.43
2018-02-09T16:38:50.293Z,28.20
2018-02-09T16:41:19.023Z,28.37
2018-02-09T16:43:49.020Z,27.62
2018-02-09T16:46:17.306Z,30.25
2018-02-09T16:48:47.501Z,28.43
2018-02-09T16:51:17.563Z,29.67
2018-02-09T16:53:45.410Z,29.52
2018-02-09T16:56:13.624Z,29.63
2018-02-09T16:58:41.896Z,30.73
2018-02-09T17:01:11.663Z,30.03
2018-02-09T17:03:42.632Z,31.07
2018-02-09T17:06:11.675Z,30.37
2018-02-09T17:08:41.953Z,30.20
2018-02-09T17:11:09.627Z,32.70
2018-02-09T17:13:37.335Z,33.80
2018-02-09T17:16:05.298Z,34.07
2018-02-09T17:18:33.764Z,33.47
2018-02-09T17:21:01.412Z,33.13
2018-02-09T17:23:31.240Z,34.50
2018-02-09T17:25:59.006Z,32.93
2018-02-09T17:28:29.064Z,33.07
2018-02-09T17:31:01.597Z,34.33
2018-02-09T17:33:32.319Z,33.77
2018-02-09T17:36:05.157Z,36.10
2018-02-09T17:38:33.003Z,36.20
2018-02-09T17:41:04.273Z,33.47
2018-02-09T17:43:32.236Z,35.30
2018-02-09T17:45:59.810Z,34.78
2018-02-09T17:48:27.423Z,35.43
2018-02-09T17:50:54.940Z,34.35
2018-02-09T17:53:22.515Z,31.90
2018-02-09T17:55:50.042Z,33.90
2018-02-09T17:58:17.652Z,33.23
2018-02-09T18:00:45.372Z,33.17
2018-02-09T18:03:13.304Z,35.80
2018-02-09T18:05:42.307Z,37.33
2018-02-09T18:08:10.939Z,35.87
2018-02-09T18:10:40.666Z,35.63
2018-02-09T18:13:08.751Z,36.67
2018-02-09T18:15:38.413Z,36.43
2018-02-09T18:18:06.040Z,36.03
2018-02-09T18:20:35.445Z,37.60
2018-02-09T18:23:05.906Z,37.08
2018-02-09T18:25:33.504Z,35.10
2018-02-09T18:28:00.999Z,36.35
2018-02-09T18:30:28.573Z,36.23
2018-02-09T18:32:56.102Z,36.67
2018-02-09T18:35:23.651Z,33.37
2018-02-09T18:37:51.204Z,34.75
2018-02-09T18:40:18.910Z,35.07
2018-02-09T18:42:46.511Z,33.90
2018-02-09T18:45:14.277Z,35.45
2018-02-09T18:47:42.040Z,35.20
2018-02-09T18:50:09.667Z,37.27
2018-02-09T18:52:37.342Z,37.63
2018-02-09T18:55:05.038Z,39.53
2018-02-09T18:57:32.598Z,38.73
2018-02-09T19:00:00.158Z,38.60
2018-02-09T19:02:27.690Z,40.83
2018-02-09T19:04:55.207Z,41.40
2018-02-09T19:07:23.887Z,39.73
2018-02-09T19:09:51.991Z,44.17
2018-02-09T19:12:19.541Z,46.63
2018-02-09T19:14:47.334Z,45.93
2018-02-09T19:17:15.054Z,45.33
2018-02-09T19:19:43.220Z,46.23
2018-02-09T19:22:12.765Z,48.17
2018-02-09T19:24:41.494Z,46.00
2018-02-09T19:27:12.251Z,48.53
2018-02-09T19:29:39.978Z,47.60
2018-02-09T19:32:07.504Z,49.13
2018-02-09T19:34:35.117Z,48.03
2018-02-09T19:37:03.082Z,47.67
2018-02-09T19:39:31.158Z,46.23
2018-02-09T19:41:59.324Z,43.90
2018-02-09T19:44:28.067Z,42.03
2018-02-09T19:46:56.275Z,44.57
2018-02-09T19:49:23.802Z,42.37
2018-02-09T19:51:52.020Z,46.60
2018-02-09T19:54:19.751Z,44.17
2018-02-09T19:56:47.837Z,45.28
2018-02-09T19:59:16.294Z,45.77
2018-02-09T20:01:44.185Z,46.30
2018-02-09T20:04:11.940Z,45.80
2018-02-09T20:06:39.537Z,41.97
2018-02-09T20:09:07.118Z,41.93
2018-02-09T20:11:35.024Z,44.67
2018-02-09T20:14:02.574Z,46.23
2018-02-09T20:16:30.096Z,44.13
2018-02-09T20:18:57.648Z,47.30
2018-02-09T20:21:25.451Z,46.00
2018-02-09T20:23:53.622Z,50.13
2018-02-09T20:26:21.211Z,50.40
2018-02-09T20:28:50.804Z,52.30
2018-02-09T20:31:19.724Z,45.53
2018-02-09T20:33:47.725Z,46.53
2018-02-09T20:36:15.544Z,48.57
2018-02-09T20:38:46.636Z,53.73
2018-02-09T20:41:14.872Z,46.10
2018-02-09T20:43:44.727Z,45.08
2018-02-09T20:46:12.798Z,43.53
2018-02-09T20:48:42.344Z,46.57
2018-02-09T20:51:13.401Z,43.27
2018-02-09T20:53:42.081Z,44.75
2018-02-09T20:56:10.384Z,45.43
2018-02-09T20:58:40.231Z,45.93
2018-02-09T21:01:08.508Z,45.43
2018-02-09T21:03:38.186Z,44.30
2018-02-09T21:06:10.620Z,44.67
2018-02-09T21:08:40.555Z,40.70
2018-02-09T21:11:10.213Z,41.17
2018-02-09T21:13:39.150Z,43.60
2018-02-09T21:16:06.703Z,43.23
2018-02-09T21:18:36.631Z,42.33
2018-02-09T21:21:06.789Z,46.93
2018-02-09T21:23:35.679Z,44.37
2018-02-09T21:26:05.315Z,45.10
2018-02-09T21:28:34.256Z,41.67
2018-02-09T21:31:04.328Z,45.47
2018-02-09T21:33:33.694Z,45.30
2018-02-09T21:36:05.105Z,46.50
2018-02-09T21:38:36.148Z,48.17
2018-02-09T21:41:04.726Z,48.00
2018-02-09T21:43:32.471Z,45.17
2018-02-09T21:46:01.354Z,47.03
2018-02-09T21:48:31.621Z,42.53
2018-02-09T21:51:04.006Z,43.47
2018-02-09T21:53:34.685Z,46.93
2018-02-09T21:56:05.487Z,46.80
2018-02-09T21:58:34.036Z,40.67
2018-02-09T22:01:02.190Z,44.03
2018-02-09T22:03:32.595Z,48.40
2018-02-09T22:06:00.349Z,46.57
2018-02-09T22:08:29.354Z,48.50
2018-02-09T22:10:57.610Z,50.13
2018-02-09T22:13:25.724Z,46.83
2018-02-09T22:15:54.621Z,50.80
2018-02-09T22:18:22.223Z,50.53
2018-02-09T22:20:50.372Z,47.00
2018-02-09T22:23:18.524Z,46.13
2018-02-09T22:25:46.115Z,48.90
2018-02-09T22:28:14.730Z,60.30
2018-02-09T22:30:42.319Z,62.50
2018-02-09T22:33:10.534Z,64.53
2018-02-09T22:35:39.980Z,54.13
2018-02-09T22:38:08.435Z,54.13
2018-02-09T22:40:39.406Z,50.50
2018-02-09T22:43:07.884Z,48.35
2018-02-09T22:45:35.996Z,48.50
2018-02-09T22:48:03.585Z,47.47
2018-02-09T22:50:33.403Z,49.33
2018-02-09T22:53:01.393Z,46.55
2018-02-09T22:55:29.857Z,49.72
2018-02-09T22:57:59.954Z,45.53
2018-02-09T23:00:28.472Z,48.40
2018-02-09T23:02:57.902Z,47.93
2018-02-09T23:05:26.895Z,47.40
2018-02-09T23:07:56.249Z,43.37
2018-02-09T23:10:26.257Z,45.40
2018-02-09T23:12:54.833Z,42.63
2018-02-09T23:15:22.762Z,41.43
2018-02-09T23:17:51.863Z,43.50
2018-02-09T23:20:21.467Z,48.07
2018-02-09T23:22:51.977Z,40.80
2018-02-09T23:25:19.694Z,42.57
2018-02-09T23:27:47.375Z,41.60
2018-02-09T23:30:21.482Z,39.27
2018-02-09T23:32:50.128Z,43.57
2018-02-09T23:35:20.858Z,38.00
2018-02-09T23:37:49.780Z,35.00
2018-02-09T23:40:19.483Z,33.60
2018-02-09T23:42:48.212Z,31.52
2018-02-09T23:45:16.887Z,30.87
2018-02-09T23:47:46.331Z,32.57
2018-02-09T23:50:17.557Z,31.13
2018-02-09T23:52:47.654Z,31.87
2018-02-09T23:55:16.874Z,34.60
2018-02-09T23:57:44.552Z,33.87
